Time;durP1;ratioP1;P1;durP2;ratioP2;P2;SDS_P1;SDS_P2;PMS_P1;PMS_P2;Temp;Humidity;BMP_temperature;BMP_pressure;BME280_temperature;BME280_humidity;BME280_pressure;Samples;Min_cycle;Max_cycle;Signal;HPM_P1;HPM_P2
2023/09/17 00:01:23;;;;;;;39.45;33.75;;;19.30;99.90;;;;;;5018635;28;20041;-55
2023/09/17 00:03:50;;;;;;;39.60;35.53;;;19.40;99.90;;;;;;5021004;28;20034;-54
2023/09/17 00:06:16;;;;;;;39.55;35.42;;;19.30;99.90;;;;;;5020381;28;20037;-54
2023/09/17 00:08:42;;;;;;;39.60;35.70;;;19.40;99.90;;;;;;4999618;28;20604;-54
2023/09/17 00:11:08;;;;;;;37.50;33.58;;;19.40;99.90;;;;;;4999087;28;20029;-55
2023/09/17 00:13:35;;;;;;;36.55;32.55;;;19.40;99.90;;;;;;5000355;28;20026;-55
2023/09/17 00:16:01;;;;;;;35.88;32.25;;;19.40;99.90;;;;;;4998253;28;20105;-54
2023/09/17 00:18:28;;;;;;;35.85;32.08;;;19.40;99.90;;;;;;5026463;28;20045;-54
2023/09/17 00:20:53;;;;;;;36.60;31.95;;;19.50;99.90;;;;;;5024071;28;20076;-54
2023/09/17 00:23:19;;;;;;;34.28;30.80;;;19.50;99.90;;;;;;5023129;28;20037;-57
2023/09/17 00:25:45;;;;;;;35.58;31.77;;;19.40;99.90;;;;;;5027405;28;20652;-56
2023/09/17 00:28:10;;;;;;;37.30;33.40;;;19.40;99.90;;;;;;5023019;28;20044;-56
2023/09/17 00:30:36;;;;;;;36.92;32.67;;;19.50;99.90;;;;;;5022774;28;20136;-55
2023/09/17 00:33:02;;;;;;;34.90;31.20;;;19.50;99.90;;;;;;5023119;28;20037;-55
2023/09/17 00:35:28;;;;;;;36.45;32.67;;;19.60;99.90;;;;;;5022538;28;20033;-53
2023/09/17 00:37:53;;;;;;;36.78;32.78;;;19.80;99.90;;;;;;5023022;28;20037;-54
2023/09/17 00:40:23;;;;;;;42.55;35.40;;;19.60;99.90;;;;;;5026184;28;20116;-56
2023/09/17 00:42:49;;;;;;;41.42;36.47;;;19.50;99.90;;;;;;5022465;28;20393;-57
2023/09/17 00:45:15;;;;;;;44.83;38.85;;;19.30;99.90;;;;;;5019900;28;20043;-55
2023/09/17 00:47:41;;;;;;;47.53;42.55;;;18.80;99.90;;;;;;5023581;28;20479;-55
2023/09/17 00:50:10;;;;;;;50.60;45.08;;;18.70;99.90;;;;;;5027103;28;20131;-56
2023/09/17 00:52:36;;;;;;;55.60;49.15;;;18.80;99.90;;;;;;5024161;28;20736;-55
2023/09/17 00:55:03;;;;;;;58.75;51.22;;;18.80;99.90;;;;;;5024910;28;20032;-55
2023/09/17 00:57:30;;;;;;;62.20;55.35;;;18.80;99.90;;;;;;5027917;28;20581;-56
2023/09/17 00:59:56;;;;;;;61.78;54.55;;;18.90;99.90;;;;;;5020340;28;20284;-57
2023/09/17 01:02:24;;;;;;;65.80;58.83;;;19.00;99.90;;;;;;5020726;28;20080;-57
2023/09/17 01:04:52;;;;;;;66.53;59.42;;;18.90;99.90;;;;;;5022086;28;20469;-56
2023/09/17 01:07:18;;;;;;;68.82;59.38;;;18.80;99.90;;;;;;5021169;28;20030;-57
2023/09/17 01:09:44;;;;;;;65.50;57.90;;;18.80;99.90;;;;;;5019528;28;20039;-55
2023/09/17 01:12:10;;;;;;;65.07;57.70;;;18.80;99.90;;;;;;5022756;28;20483;-56
2023/09/17 01:14:36;;;;;;;72.75;59.83;;;18.90;99.90;;;;;;5022040;28;20115;-55
2023/09/17 01:17:03;;;;;;;65.47;56.45;;;18.80;99.90;;;;;;5018914;28;20161;-56
2023/09/17 01:19:31;;;;;;;66.22;58.83;;;18.70;99.90;;;;;;5021372;28;20424;-55
2023/09/17 01:22:06;;;;;;;65.90;58.80;;;18.70;99.90;;;;;;5021456;28;20171;-55
2023/09/17 01:25:18;;;;;;;64.55;57.53;;;18.70;99.90;;;;;;5021854;28;20082;-55
2023/09/17 01:27:44;;;;;;;69.97;60.92;;;18.70;99.90;;;;;;5012133;28;20310;-56
2023/09/17 01:30:15;;;;;;;70.25;60.00;;;18.70;99.90;;;;;;5022109;28;20041;-56
2023/09/17 01:32:44;;;;;;;70.50;60.05;;;18.70;99.90;;;;;;5023878;28;20037;-56
2023/09/17 01:35:15;;;;;;;68.45;56.63;;;18.80;99.90;;;;;;5024144;28;20453;-56
2023/09/17 01:37:53;;;;;;;66.70;57.05;;;18.80;99.90;;;;;;5019294;28;20474;-55
2023/09/17 01:40:20;;;;;;;67.82;54.25;;;18.80;99.90;;;;;;5024167;28;20523;-57
2023/09/17 01:42:47;;;;;;;67.45;54.13;;;18.70;99.90;;;;;;5024162;28;20057;-55
2023/09/17 01:45:14;;;;;;;65.78;54.05;;;18.70;99.90;;;;;;5020983;28;20488;-56
2023/09/17 01:47:48;;;;;;;63.22;51.25;;;18.70;99.90;;;;;;5022947;28;20467;-56
2023/09/17 01:50:16;;;;;;;68.18;51.92;;;18.60;99.90;;;;;;5021802;28;20029;-55
2023/09/17 01:52:45;;;;;;;64.60;50.30;;;18.60;99.90;;;;;;5019460;28;20045;-55
2023/09/17 01:55:12;;;;;;;57.92;46.72;;;18.60;99.90;;;;;;5023785;28;20044;-55
2023/09/17 01:57:37;;;;;;;58.22;45.60;;;18.60;99.90;;;;;;5023742;28;20029;-55
2023/09/17 02:00:19;;;;;;;52.90;44.97;;;18.60;99.90;;;;;;5019988;28;20041;-57
2023/09/17 02:02:51;;;;;;;52.13;44.63;;;18.60;99.90;;;;;;5016973;28;20041;-55
2023/09/17 02:05:17;;;;;;;52.50;43.72;;;18.60;99.90;;;;;;5017601;28;20492;-57
2023/09/17 02:07:43;;;;;;;52.53;42.88;;;18.60;99.90;;;;;;5022813;28;20029;-55
2023/09/17 02:10:09;;;;;;;50.88;42.58;;;18.60;99.90;;;;;;5021720;28;20440;-56
2023/09/17 02:12:34;;;;;;;50.25;40.95;;;18.50;99.90;;;;;;5019246;28;20033;-56
2023/09/17 02:15:00;;;;;;;55.65;42.60;;;18.50;99.90;;;;;;5024763;28;20120;-56
2023/09/17 02:17:26;;;;;;;56.97;43.20;;;18.60;99.90;;;;;;5017088;28;20037;-56
2023/09/17 02:19:51;;;;;;;52.67;44.50;;;18.70;99.90;;;;;;5020379;28;20064;-57
2023/09/17 02:22:17;;;;;;;54.47;44.45;;;18.80;99.90;;;;;;5021673;28;20125;-55
2023/09/17 02:24:43;;;;;;;55.03;43.45;;;18.80;99.90;;;;;;5020804;28;20029;-56
2023/09/17 02:27:08;;;;;;;49.10;41.65;;;18.60;99.90;;;;;;5020754;28;20032;-54
2023/09/17 02:29:34;;;;;;;51.28;42.70;;;18.50;99.90;;;;;;5022843;28;20246;-56
2023/09/17 02:32:00;;;;;;;49.40;42.65;;;18.50;99.90;;;;;;5021713;28;20119;-54
2023/09/17 02:34:25;;;;;;;51.05;42.97;;;18.50;99.90;;;;;;5019611;28;20417;-56
2023/09/17 02:36:51;;;;;;;41.15;36.63;;;18.50;99.90;;;;;;5021269;28;20484;-54
2023/09/17 02:39:16;;;;;;;33.83;30.35;;;18.50;99.90;;;;;;5022557;28;20428;-53
2023/09/17 02:41:42;;;;;;;31.00;27.80;;;18.60;99.90;;;;;;5021565;28;20030;-56
2023/09/17 02:44:08;;;;;;;28.58;25.58;;;18.60;99.90;;;;;;5026613;28;20029;-56
2023/09/17 02:46:34;;;;;;;19.52;17.52;;;18.60;99.90;;;;;;5020725;28;20060;-56
2023/09/17 02:49:00;;;;;;;25.33;22.77;;;18.70;99.90;;;;;;5021102;28;20033;-55
2023/09/17 02:51:27;;;;;;;23.02;20.80;;;18.70;99.90;;;;;;5021189;28;20033;-56
2023/09/17 02:53:52;;;;;;;21.73;19.73;;;18.60;99.90;;;;;;5011407;28;20049;-55
2023/09/17 02:56:18;;;;;;;19.52;17.70;;;18.60;99.90;;;;;;5017797;28;20037;-55
2023/09/17 02:58:44;;;;;;;18.85;17.15;;;18.60;99.90;;;;;;5020614;28;20049;-56
2023/09/17 03:01:18;;;;;;;11.93;10.82;;;18.50;99.90;;;;;;5023996;28;20102;-55
2023/09/17 03:03:47;;;;;;;11.57;10.50;;;18.40;99.90;;;;;;5023281;28;20044;-56
2023/09/17 03:06:13;;;;;;;16.50;15.10;;;18.50;99.90;;;;;;5017029;28;20438;-55
2023/09/17 03:08:43;;;;;;;17.45;15.95;;;18.50;99.90;;;;;;5020704;28;20057;-54
2023/09/17 03:11:17;;;;;;;18.05;16.35;;;18.30;99.90;;;;;;5026469;28;20391;-55
2023/09/17 03:13:47;;;;;;;18.65;16.85;;;18.40;99.90;;;;;;5025652;28;20545;-53
2023/09/17 03:16:15;;;;;;;14.82;13.45;;;18.40;99.90;;;;;;5022701;28;20057;-59
2023/09/17 03:18:44;;;;;;;20.20;18.27;;;18.40;99.90;;;;;;5024075;28;20034;-54
2023/09/17 03:21:11;;;;;;;21.08;19.17;;;18.20;99.90;;;;;;5020326;28;20048;-55
2023/09/17 03:23:37;;;;;;;23.15;20.65;;;18.10;99.90;;;;;;5019898;28;20021;-55
2023/09/17 03:26:04;;;;;;;21.50;19.50;;;18.10;99.90;;;;;;5024670;28;20443;-55
2023/09/17 03:28:33;;;;;;;24.17;21.77;;;18.20;99.90;;;;;;5025139;28;20030;-56
2023/09/17 03:31:00;;;;;;;26.95;24.00;;;18.10;99.90;;;;;;5024035;28;20030;-54
2023/09/17 03:33:25;;;;;;;19.95;18.08;;;18.20;99.90;;;;;;5023938;28;20037;-56
2023/09/17 03:35:53;;;;;;;7.95;7.20;;;18.20;99.90;;;;;;5023180;28;20500;-54
2023/09/17 03:38:19;;;;;;;3.08;2.80;;;18.10;99.90;;;;;;5004365;28;20495;-57
2023/09/17 03:40:45;;;;;;;0.15;0.10;;;18.10;99.90;;;;;;5003390;28;20045;-55
2023/09/17 03:43:10;;;;;;;0.00;0.00;;;18.10;99.90;;;;;;4996178;28;20037;-55
2023/09/17 03:45:36;;;;;;;0.00;0.00;;;18.20;99.90;;;;;;5003824;28;20034;-56
2023/09/17 03:48:04;;;;;;;0.00;0.00;;;18.00;99.90;;;;;;5001754;28;20440;-56
2023/09/17 03:50:30;;;;;;;0.00;0.00;;;18.30;99.90;;;;;;5004958;28;20375;-56
2023/09/17 03:52:57;;;;;;;0.00;0.00;;;18.40;99.90;;;;;;5002259;28;20049;-55
2023/09/17 03:55:24;;;;;;;0.00;0.00;;;18.30;99.90;;;;;;5000506;28;20128;-56
2023/09/17 03:57:50;;;;;;;0.00;0.00;;;18.20;99.90;;;;;;5000205;28;20491;-55
2023/09/17 04:00:17;;;;;;;0.00;0.00;;;18.40;99.90;;;;;;4995935;28;20042;-56
2023/09/17 04:02:44;;;;;;;0.00;0.00;;;18.30;99.90;;;;;;5003045;28;20077;-54
2023/09/17 04:05:11;;;;;;;0.00;0.00;;;18.30;99.90;;;;;;5002638;28;20330;-55
2023/09/17 04:07:44;;;;;;;0.00;0.00;;;18.30;99.90;;;;;;5001305;28;20369;-55
2023/09/17 04:10:12;;;;;;;0.00;0.00;;;18.20;99.90;;;;;;4994269;28;20091;-55
2023/09/17 04:12:39;;;;;;;0.00;0.00;;;18.20;99.90;;;;;;5003548;28;20038;-55
2023/09/17 04:15:13;;;;;;;0.00;0.00;;;18.30;99.90;;;;;;4998478;28;20080;-56
2023/09/17 04:17:39;;;;;;;0.00;0.00;;;18.30;99.90;;;;;;5003985;28;20050;-54
2023/09/17 04:20:18;;;;;;;0.00;0.00;;;18.30;99.90;;;;;;5003068;28;20046;-54
2023/09/17 04:22:49;;;;;;;0.00;0.00;;;18.30;99.90;;;;;;5002161;28;20034;-56
2023/09/17 04:25:18;;;;;;;0.00;0.00;;;18.30;99.90;;;;;;4998322;28;20541;-56
2023/09/17 04:27:45;;;;;;;0.00;0.00;;;18.30;99.90;;;;;;5002037;28;20768;-55
2023/09/17 04:30:13;;;;;;;0.00;0.00;;;18.30;99.90;;;;;;5002973;28;20034;-55
2023/09/17 04:32:42;;;;;;;0.00;0.00;;;18.30;99.90;;;;;;4999570;28;20469;-53
2023/09/17 04:35:09;;;;;;;0.00;0.00;;;18.20;99.90;;;;;;4999558;28;20045;-53
2023/09/17 04:37:36;;;;;;;0.00;0.00;;;18.30;99.90;;;;;;5001125;28;20032;-55
2023/09/17 04:40:08;;;;;;;0.00;0.00;;;18.40;99.90;;;;;;4994732;28;20124;-56
2023/09/17 04:42:35;;;;;;;0.00;0.00;;;18.30;99.90;;;;;;5036541;28;20033;-55
2023/09/17 04:45:04;;;;;;;0.00;0.00;;;18.40;99.90;;;;;;5022658;28;20508;-55
2023/09/17 04:47:30;;;;;;;0.00;0.00;;;18.40;99.90;;;;;;5020677;28;20040;-56
2023/09/17 04:49:55;;;;;;;0.00;0.00;;;18.40;99.90;;;;;;5021574;28;20048;-54
2023/09/17 04:52:21;;;;;;;0.00;0.00;;;18.40;99.90;;;;;;5020495;28;20143;-54
2023/09/17 04:54:46;;;;;;;0.00;0.00;;;18.50;99.90;;;;;;5020627;28;20052;-54
2023/09/17 04:57:12;;;;;;;0.00;0.00;;;18.40;99.90;;;;;;5018658;28;20234;-55
2023/09/17 04:59:37;;;;;;;0.00;0.00;;;18.30;99.90;;;;;;5023302;28;20181;-56
2023/09/17 05:02:03;;;;;;;0.00;0.00;;;18.40;99.90;;;;;;5022630;28;20049;-56
2023/09/17 05:04:29;;;;;;;0.00;0.00;;;18.50;99.90;;;;;;5021741;28;20034;-56
2023/09/17 05:06:54;;;;;;;0.00;0.00;;;18.40;99.90;;;;;;5020878;28;20036;-56
2023/09/17 05:09:20;;;;;;;0.00;0.00;;;18.50;99.90;;;;;;5023216;28;20033;-56
2023/09/17 05:11:46;;;;;;;0.00;0.00;;;18.50;99.90;;;;;;5023418;28;20022;-54
2023/09/17 05:14:11;;;;;;;0.00;0.00;;;18.50;99.90;;;;;;5020756;28;20468;-55
2023/09/17 05:16:40;;;;;;;0.00;0.00;;;18.40;99.90;;;;;;5022796;28;20044;-56
2023/09/17 05:19:05;;;;;;;0.00;0.00;;;18.30;99.90;;;;;;5022021;28;20401;-55
2023/09/17 05:21:31;;;;;;;0.00;0.00;;;18.20;99.90;;;;;;5021478;28;20029;-55
2023/09/17 05:23:56;;;;;;;0.00;0.00;;;18.30;99.90;;;;;;5021959;28;20415;-55
2023/09/17 05:26:22;;;;;;;0.00;0.00;;;18.20;99.90;;;;;;5023228;28;20506;-54
2023/09/17 05:28:48;;;;;;;0.00;0.00;;;18.10;99.90;;;;;;5023028;28;20547;-55
2023/09/17 05:31:14;;;;;;;0.00;0.00;;;18.30;99.90;;;;;;5021654;28;20029;-55
2023/09/17 05:33:39;;;;;;;0.00;0.00;;;18.30;99.90;;;;;;5020363;28;20082;-54
2023/09/17 05:36:05;;;;;;;0.00;0.00;;;18.20;99.90;;;;;;5020713;28;20041;-55
2023/09/17 05:38:31;;;;;;;0.00;0.00;;;18.20;99.90;;;;;;5023352;28;20029;-55
2023/09/17 05:40:56;;;;;;;0.00;0.00;;;18.20;99.90;;;;;;5021962;28;20045;-55
2023/09/17 05:43:24;;;;;;;0.00;0.00;;;18.20;99.90;;;;;;5021458;28;20454;-55
2023/09/17 05:45:56;;;;;;;0.00;0.00;;;18.20;99.90;;;;;;5021933;28;20124;-55
2023/09/17 05:48:24;;;;;;;0.00;0.00;;;18.30;99.90;;;;;;5020419;28;20069;-55
2023/09/17 05:50:52;;;;;;;0.00;0.00;;;18.20;99.90;;;;;;5018299;28;20038;-55
2023/09/17 05:53:18;;;;;;;0.00;0.00;;;18.20;99.90;;;;;;5023213;28;20040;-55
2023/09/17 05:55:43;;;;;;;0.00;0.00;;;18.30;99.90;;;;;;5023627;28;20029;-55
2023/09/17 05:58:09;;;;;;;0.00;0.00;;;18.30;99.90;;;;;;5019443;28;20740;-54
2023/09/17 06:00:35;;;;;;;0.00;0.00;;;18.50;99.90;;;;;;5022739;28;20102;-54
2023/09/17 06:03:00;;;;;;;0.00;0.00;;;18.50;99.90;;;;;;5017111;28;20041;-54
2023/09/17 06:05:26;;;;;;;0.00;0.00;;;18.60;99.90;;;;;;5014406;28;20124;-54
2023/09/17 06:07:52;;;;;;;0.00;0.00;;;18.50;99.90;;;;;;5024321;28;20059;-54
2023/09/17 06:10:17;;;;;;;0.00;0.00;;;18.60;99.90;;;;;;5023716;28;20108;-56
2023/09/17 06:12:43;;;;;;;0.00;0.00;;;18.70;99.90;;;;;;5020640;28;20033;-55
2023/09/17 06:15:09;;;;;;;0.00;0.00;;;18.90;99.90;;;;;;5021462;28;20043;-55
2023/09/17 06:17:34;;;;;;;0.00;0.00;;;18.80;99.90;;;;;;5022051;28;20057;-56
2023/09/17 06:20:00;;;;;;;0.00;0.00;;;18.80;99.90;;;;;;5025523;28;20034;-56
2023/09/17 06:22:25;;;;;;;0.00;0.00;;;19.00;99.90;;;;;;5024116;28;20506;-54
2023/09/17 06:24:51;;;;;;;0.00;0.00;;;19.00;99.90;;;;;;5020536;28;20037;-55
2023/09/17 06:27:17;;;;;;;0.00;0.00;;;18.90;99.90;;;;;;5021860;28;20136;-55
2023/09/17 06:29:42;;;;;;;0.00;0.00;;;19.00;99.90;;;;;;5025615;28;20037;-55
2023/09/17 06:32:08;;;;;;;0.00;0.00;;;19.00;99.90;;;;;;5020832;28;20041;-55
2023/09/17 06:34:35;;;;;;;0.00;0.00;;;18.90;99.90;;;;;;5022202;28;20052;-54
2023/09/17 06:37:01;;;;;;;0.00;0.00;;;18.90;99.90;;;;;;5018629;28;20037;-53
2023/09/17 06:39:27;;;;;;;0.00;0.00;;;18.80;99.90;;;;;;5011147;28;20460;-56
2023/09/17 06:41:53;;;;;;;0.00;0.00;;;19.00;99.90;;;;;;5023960;28;20115;-55
2023/09/17 06:44:18;;;;;;;0.00;0.00;;;19.10;99.90;;;;;;4998328;28;20034;-55
2023/09/17 06:46:44;;;;;;;0.00;0.00;;;19.20;99.90;;;;;;4998808;28;20041;-55
2023/09/17 06:49:10;;;;;;;0.00;0.00;;;19.30;99.90;;;;;;5000551;28;20030;-56
2023/09/17 06:51:36;;;;;;;0.00;0.00;;;19.40;99.90;;;;;;4998908;28;20045;-55
2023/09/17 06:54:03;;;;;;;0.00;0.00;;;19.40;99.90;;;;;;5000046;28;20394;-55
2023/09/17 06:56:29;;;;;;;0.00;0.00;;;19.40;99.90;;;;;;5000117;28;20146;-55
2023/09/17 06:58:55;;;;;;;0.00;0.00;;;19.30;99.90;;;;;;4993823;28;20034;-55
2023/09/17 07:01:21;;;;;;;0.00;0.00;;;19.30;99.90;;;;;;4998965;28;20026;-55
2023/09/17 07:03:47;;;;;;;0.00;0.00;;;19.40;99.90;;;;;;5015201;28;20488;-55
2023/09/17 07:06:13;;;;;;;0.00;0.00;;;19.30;99.90;;;;;;4994651;28;20031;-55
2023/09/17 07:08:38;;;;;;;0.00;0.00;;;19.40;99.90;;;;;;5001118;28;20027;-56
2023/09/17 07:11:04;;;;;;;0.00;0.00;;;19.40;99.90;;;;;;5003476;28;20044;-54
2023/09/17 07:13:30;;;;;;;0.00;0.00;;;19.50;99.90;;;;;;5004801;28;20391;-55
2023/09/17 07:15:56;;;;;;;0.00;0.00;;;19.60;99.90;;;;;;5004385;28;20064;-54
2023/09/17 07:18:21;;;;;;;0.00;0.00;;;19.70;99.90;;;;;;4998954;28;20050;-55
2023/09/17 07:20:49;;;;;;;0.00;0.00;;;19.70;99.90;;;;;;5005942;28;20515;-56
2023/09/17 07:23:15;;;;;;;0.00;0.00;;;19.80;99.90;;;;;;4998449;28;20029;-56
2023/09/17 07:25:41;;;;;;;0.00;0.00;;;19.90;99.90;;;;;;5001509;28;20038;-55
2023/09/17 07:28:07;;;;;;;0.00;0.00;;;20.00;99.90;;;;;;5012797;28;20049;-55
2023/09/17 07:30:34;;;;;;;0.00;0.00;;;20.10;99.90;;;;;;5022848;28;20042;-56
2023/09/17 07:33:01;;;;;;;0.00;0.00;;;20.20;99.90;;;;;;5019280;28;20095;-55
2023/09/17 07:35:28;;;;;;;0.00;0.00;;;20.20;99.90;;;;;;5021489;28;20033;-55
2023/09/17 07:37:53;;;;;;;0.00;0.00;;;20.20;99.90;;;;;;5024039;28;20372;-54
2023/09/17 07:40:19;;;;;;;0.00;0.00;;;20.20;99.90;;;;;;5018292;28;20042;-56
2023/09/17 07:42:45;;;;;;;0.00;0.00;;;20.20;99.90;;;;;;5015388;28;20034;-56
2023/09/17 07:45:13;;;;;;;0.00;0.00;;;20.30;99.90;;;;;;5027183;28;20467;-55
2023/09/17 07:47:39;;;;;;;0.00;0.00;;;20.50;99.90;;;;;;5026646;28;20030;-55
2023/09/17 07:50:05;;;;;;;0.00;0.00;;;20.50;99.90;;;;;;5025273;28;20053;-55
2023/09/17 07:52:31;;;;;;;0.00;0.00;;;20.50;99.90;;;;;;5017390;28;20045;-55
2023/09/17 07:54:57;;;;;;;0.00;0.00;;;20.50;99.90;;;;;;5020347;28;20484;-56
2023/09/17 07:57:23;;;;;;;0.00;0.00;;;20.50;99.90;;;;;;5018027;28;20037;-56
2023/09/17 07:59:49;;;;;;;0.00;0.00;;;20.60;99.90;;;;;;5020800;28;20111;-56
2023/09/17 08:02:14;;;;;;;0.00;0.00;;;20.60;99.90;;;;;;5021157;28;20091;-56
2023/09/17 08:04:40;;;;;;;0.00;0.00;;;20.70;99.90;;;;;;5015483;28;20042;-54
2023/09/17 08:07:06;;;;;;;0.00;0.00;;;20.80;99.90;;;;;;5014656;28;20057;-56
2023/09/17 08:09:31;;;;;;;0.00;0.00;;;20.80;99.90;;;;;;5025902;28;20029;-55
2023/09/17 08:11:57;;;;;;;0.00;0.00;;;20.90;99.90;;;;;;5025375;28;20501;-56
2023/09/17 08:14:27;;;;;;;0.00;0.00;;;20.90;99.90;;;;;;5025945;28;20049;-55
2023/09/17 08:16:53;;;;;;;0.05;0.00;;;21.00;99.90;;;;;;5021864;28;20061;-55
2023/09/17 08:19:19;;;;;;;4.65;3.92;;;21.20;99.90;;;;;;5026134;28;20473;-56
2023/09/17 08:21:45;;;;;;;1.90;1.60;;;21.30;99.90;;;;;;5025958;28;20037;-56
2023/09/17 08:24:10;;;;;;;3.40;2.72;;;21.40;99.90;;;;;;5005025;28;20029;-56
2023/09/17 08:26:36;;;;;;;2.83;2.60;;;21.50;99.90;;;;;;5007962;28;20083;-56
2023/09/17 08:29:04;;;;;;;0.55;0.28;;;21.60;99.90;;;;;;5003655;28;20029;-56
2023/09/17 08:31:32;;;;;;;0.00;0.00;;;21.60;99.90;;;;;;5017256;28;20061;-56
2023/09/17 08:33:58;;;;;;;0.00;0.00;;;21.60;99.90;;;;;;5006219;28;20053;-55
2023/09/17 08:36:24;;;;;;;0.00;0.00;;;21.60;99.90;;;;;;5000626;28;20037;-54
2023/09/17 08:38:52;;;;;;;0.00;0.00;;;21.60;99.90;;;;;;5000438;28;20025;-55
2023/09/17 08:41:19;;;;;;;0.00;0.00;;;21.80;99.90;;;;;;4999175;28;20065;-55
2023/09/17 08:43:52;;;;;;;0.00;0.00;;;21.80;99.90;;;;;;5002784;28;20026;-56
2023/09/17 08:46:18;;;;;;;0.00;0.00;;;21.80;99.90;;;;;;4996071;28;20026;-55
2023/09/17 08:48:44;;;;;;;0.00;0.00;;;21.90;99.90;;;;;;4999049;28;20581;-55
2023/09/17 08:51:12;;;;;;;0.00;0.00;;;21.80;99.90;;;;;;5004001;28;20046;-55
2023/09/17 08:53:50;;;;;;;0.00;0.00;;;21.70;99.90;;;;;;5005247;28;20386;-56
2023/09/17 08:56:17;;;;;;;0.00;0.00;;;21.70;99.90;;;;;;5001133;28;20473;-54
2023/09/17 08:58:50;;;;;;;0.00;0.00;;;21.70;99.90;;;;;;5005588;28;20026;-55
2023/09/17 09:01:19;;;;;;;0.00;0.00;;;21.90;99.90;;;;;;5007917;28;20045;-54
2023/09/17 09:03:46;;;;;;;0.00;0.00;;;22.00;99.90;;;;;;5018474;28;20033;-55
2023/09/17 09:06:14;;;;;;;0.00;0.00;;;22.10;99.90;;;;;;5006428;28;20374;-55
2023/09/17 09:08:42;;;;;;;0.00;0.00;;;22.20;99.90;;;;;;5002976;28;20113;-55
2023/09/17 09:11:09;;;;;;;0.00;0.00;;;22.30;99.90;;;;;;5001089;28;20033;-55
2023/09/17 09:13:36;;;;;;;0.00;0.00;;;22.50;99.90;;;;;;5002134;28;20123;-54
2023/09/17 09:16:03;;;;;;;0.00;0.00;;;22.40;99.90;;;;;;5000206;28;20448;-53
2023/09/17 09:18:29;;;;;;;0.00;0.00;;;22.40;99.90;;;;;;5002031;28;20401;-55
2023/09/17 09:20:55;;;;;;;0.00;0.00;;;22.40;99.90;;;;;;5013522;28;20653;-55
2023/09/17 09:23:21;;;;;;;0.00;0.00;;;22.50;99.90;;;;;;5015240;28;20033;-55
2023/09/17 09:25:47;;;;;;;0.00;0.00;;;22.60;99.90;;;;;;5005115;28;20448;-55
2023/09/17 09:28:12;;;;;;;0.00;0.00;;;22.60;99.90;;;;;;5004229;28;20034;-54
2023/09/17 09:30:38;;;;;;;0.00;0.00;;;22.60;99.90;;;;;;5001313;28;20042;-55
2023/09/17 09:33:04;;;;;;;0.00;0.00;;;22.50;99.90;;;;;;5003676;28;20042;-55
2023/09/17 09:35:30;;;;;;;0.00;0.00;;;22.60;99.90;;;;;;5001487;28;20041;-55
2023/09/17 09:37:56;;;;;;;0.00;0.00;;;22.70;99.90;;;;;;5003503;28;20033;-56
2023/09/17 09:40:24;;;;;;;0.00;0.00;;;22.70;99.90;;;;;;5005676;28;20454;-56
2023/09/17 09:42:50;;;;;;;0.00;0.00;;;22.80;99.90;;;;;;5004759;28;20109;-56
2023/09/17 09:45:15;;;;;;;0.00;0.00;;;22.80;99.90;;;;;;5021324;28;20164;-57
2023/09/17 09:47:49;;;;;;;0.00;0.00;;;22.70;99.90;;;;;;5026552;28;20146;-56
2023/09/17 09:50:26;;;;;;;0.00;0.00;;;22.70;99.90;;;;;;5026007;28;20052;-55
2023/09/17 09:52:53;;;;;;;0.00;0.00;;;22.80;99.90;;;;;;5021243;28;20049;-55
2023/09/17 09:55:22;;;;;;;0.00;0.00;;;22.80;99.90;;;;;;5021986;28;20384;-56
2023/09/17 09:57:48;;;;;;;0.00;0.00;;;22.80;99.90;;;;;;5021565;28;20115;-56
2023/09/17 10:00:19;;;;;;;0.00;0.00;;;22.90;99.90;;;;;;5017880;28;20500;-54
2023/09/17 10:02:46;;;;;;;0.00;0.00;;;22.90;99.90;;;;;;5021829;28;20124;-56
2023/09/17 10:05:16;;;;;;;0.00;0.00;;;22.90;99.90;;;;;;5024227;28;20455;-56
2023/09/17 10:07:45;;;;;;;0.00;0.00;;;22.90;99.90;;;;;;5022281;28;20048;-56
2023/09/17 10:10:11;;;;;;;0.00;0.00;;;23.00;99.90;;;;;;5022310;28;20037;-56
2023/09/17 10:12:37;;;;;;;0.00;0.00;;;23.00;99.90;;;;;;5020140;28;20030;-56
2023/09/17 10:15:04;;;;;;;0.00;0.00;;;23.00;99.90;;;;;;5025614;28;20635;-55
2023/09/17 10:17:32;;;;;;;0.00;0.00;;;23.00;99.90;;;;;;5045354;28;20714;-55
2023/09/17 10:19:59;;;;;;;0.00;0.00;;;23.00;99.90;;;;;;5026392;28;20033;-56
2023/09/17 10:22:25;;;;;;;0.00;0.00;;;23.10;99.90;;;;;;5024018;28;20044;-57
2023/09/17 10:24:51;;;;;;;0.00;0.00;;;23.10;99.90;;;;;;5023826;28;20401;-56
2023/09/17 10:27:19;;;;;;;0.00;0.00;;;23.20;99.90;;;;;;5022556;28;20042;-54
2023/09/17 10:29:49;;;;;;;0.00;0.00;;;23.00;99.90;;;;;;5025352;28;20030;-56
2023/09/17 10:32:18;;;;;;;0.00;0.00;;;23.10;99.90;;;;;;5019966;28;20080;-56
2023/09/17 10:34:45;;;;;;;0.00;0.00;;;23.20;99.90;;;;;;5025145;28;20045;-56
2023/09/17 10:37:14;;;;;;;0.00;0.00;;;23.30;99.90;;;;;;5025826;28;20038;-56
2023/09/17 10:39:42;;;;;;;0.00;0.00;;;23.30;99.90;;;;;;5024789;28;20048;-55
2023/09/17 10:42:11;;;;;;;0.00;0.00;;;23.30;99.90;;;;;;5025094;28;20045;-55
2023/09/17 10:44:40;;;;;;;0.00;0.00;;;23.30;99.90;;;;;;5023420;28;20112;-55
2023/09/17 10:47:09;;;;;;;0.00;0.00;;;23.40;99.90;;;;;;5025649;28;20060;-55
2023/09/17 10:49:36;;;;;;;0.00;0.00;;;23.50;99.90;;;;;;5030638;28;20045;-56
2023/09/17 10:52:03;;;;;;;0.00;0.00;;;23.50;99.90;;;;;;5025330;28;20037;-56
2023/09/17 10:54:29;;;;;;;0.00;0.00;;;23.50;99.90;;;;;;5024763;28;20051;-55
2023/09/17 10:56:56;;;;;;;0.00;0.00;;;23.50;99.90;;;;;;5025040;28;20026;-57
2023/09/17 10:59:23;;;;;;;0.00;0.00;;;23.50;99.90;;;;;;5026335;28;20946;-56
2023/09/17 11:01:50;;;;;;;0.00;0.00;;;23.40;99.90;;;;;;5031286;28;20532;-57
2023/09/17 11:04:22;;;;;;;0.00;0.00;;;23.40;99.90;;;;;;5023745;28;20038;-56
2023/09/17 11:06:50;;;;;;;0.00;0.00;;;23.50;99.90;;;;;;5025259;28;20034;-57
2023/09/17 11:09:15;;;;;;;0.00;0.00;;;23.60;99.90;;;;;;5022529;28;20064;-57
2023/09/17 11:11:41;;;;;;;0.00;0.00;;;23.60;99.90;;;;;;5022465;28;20169;-54
2023/09/17 11:14:08;;;;;;;0.00;0.00;;;23.50;99.90;;;;;;5018750;28;20026;-54
2023/09/17 11:16:35;;;;;;;0.00;0.00;;;23.50;99.90;;;;;;5018602;28;20049;-56
2023/09/17 11:19:11;;;;;;;0.00;0.00;;;23.50;99.90;;;;;;5022512;28;20515;-55
2023/09/17 11:21:41;;;;;;;0.00;0.00;;;23.40;99.90;;;;;;5022620;28;20022;-56
2023/09/17 11:24:12;;;;;;;0.00;0.00;;;23.40;99.90;;;;;;5017365;28;20109;-55
2023/09/17 11:26:40;;;;;;;0.00;0.00;;;23.40;99.90;;;;;;5022733;28;20030;-57
2023/09/17 11:29:06;;;;;;;0.00;0.00;;;23.50;99.90;;;;;;5021444;28;20071;-57
2023/09/17 11:31:51;;;;;;;0.00;0.00;;;23.60;99.90;;;;;;5017839;28;20029;-55
2023/09/17 11:34:17;;;;;;;0.00;0.00;;;23.60;99.90;;;;;;5021433;28;20124;-56
2023/09/17 11:36:44;;;;;;;0.00;0.00;;;23.60;99.90;;;;;;5020562;28;20167;-57
2023/09/17 11:39:15;;;;;;;0.00;0.00;;;23.60;99.90;;;;;;5020710;28;20041;-57
2023/09/17 11:41:46;;;;;;;0.00;0.00;;;23.60;99.90;;;;;;5020567;28;20102;-55
2023/09/17 11:44:12;;;;;;;0.00;0.00;;;23.60;99.90;;;;;;5023659;28;20516;-58
2023/09/17 11:46:38;;;;;;;0.00;0.00;;;23.50;99.90;;;;;;5022858;28;20116;-56
2023/09/17 11:49:04;;;;;;;0.00;0.00;;;23.70;99.90;;;;;;5025345;28;20191;-57
2023/09/17 11:51:31;;;;;;;0.00;0.00;;;23.60;99.90;;;;;;5029269;28;21155;-56
2023/09/17 11:54:02;;;;;;;0.00;0.00;;;23.60;99.90;;;;;;5031586;28;20030;-56
2023/09/17 11:56:32;;;;;;;0.00;0.00;;;23.70;99.90;;;;;;5022739;28;20191;-57
2023/09/17 11:58:58;;;;;;;0.00;0.00;;;23.50;99.90;;;;;;5027567;28;20059;-58
2023/09/17 12:01:25;;;;;;;0.00;0.00;;;23.60;99.90;;;;;;5030695;28;20045;-58
2023/09/17 12:03:53;;;;;;;0.00;0.00;;;23.50;99.90;;;;;;5024490;28;20499;-57
2023/09/17 12:06:20;;;;;;;0.00;0.00;;;23.60;99.90;;;;;;5025868;28;20034;-57
2023/09/17 12:08:47;;;;;;;0.00;0.00;;;23.60;99.90;;;;;;5017906;28;20168;-57
2023/09/17 12:11:21;;;;;;;0.00;0.00;;;23.60;99.90;;;;;;5004883;28;20041;-58
2023/09/17 12:13:57;;;;;;;0.00;0.00;;;23.60;99.90;;;;;;5006573;28;20118;-57
2023/09/17 12:16:24;;;;;;;0.00;0.00;;;23.40;99.90;;;;;;5004652;28;20133;-59
2023/09/17 12:18:54;;;;;;;0.00;0.00;;;23.40;99.90;;;;;;5004018;28;20557;-53
2023/09/17 12:21:21;;;;;;;0.00;0.00;;;23.40;99.90;;;;;;5003802;28;20042;-54
2023/09/17 12:23:54;;;;;;;0.00;0.00;;;23.40;99.90;;;;;;5000871;28;20544;-55
2023/09/17 12:26:31;;;;;;;0.00;0.00;;;23.50;99.90;;;;;;5001671;28;20068;-54
2023/09/17 12:28:57;;;;;;;0.00;0.00;;;23.50;99.90;;;;;;5008219;28;20080;-55
2023/09/17 12:31:23;;;;;;;0.00;0.00;;;23.50;99.90;;;;;;5007555;28;20045;-55
2023/09/17 12:33:49;;;;;;;0.00;0.00;;;23.40;99.90;;;;;;5003981;28;20030;-53
2023/09/17 12:36:14;;;;;;;0.00;0.00;;;23.50;99.90;;;;;;5001867;28;20387;-55
2023/09/17 12:38:40;;;;;;;0.00;0.00;;;23.60;99.90;;;;;;5005745;28;20061;-58
2023/09/17 12:41:06;;;;;;;0.00;0.00;;;23.60;99.90;;;;;;4999302;28;20041;-53